Time;durP1;ratioP1;P1;durP2;ratioP2;P2;SDS_P1;SDS_P2;PMS_P1;PMS_P2;Temp;Humidity;BMP_temperature;BMP_pressure;BME280_temperature;BME280_humidity;BME280_pressure;Samples;Min_cycle;Max_cycle;Signal;HPM_P1;HPM_P2
2022/03/05 00:00:33;;;;;;;2.05;1.35;;;;;;;3.71;100.00;101460.97;5028895;28;20469;-59
2022/03/05 00:02:59;;;;;;;4.57;2.15;;;;;;;3.69;100.00;101460.28;5023732;28;20031;-59
2022/03/05 00:05:25;;;;;;;3.67;1.92;;;;;;;3.69;100.00;101464.66;5036595;28;20059;-61
2022/03/05 00:07:51;;;;;;;4.18;1.83;;;;;;;3.68;100.00;101463.00;5030196;28;20028;-60
2022/03/05 00:10:18;;;;;;;1.85;1.23;;;;;;;3.62;100.00;101456.47;5028367;28;20032;-58
2022/03/05 00:12:44;;;;;;;4.07;2.00;;;;;;;3.57;100.00;101458.63;5028388;28;20120;-57
2022/03/05 00:15:09;;;;;;;5.20;1.85;;;;;;;3.52;100.00;101459.94;5033450;28;20059;-59
2022/03/05 00:17:35;;;;;;;4.70;1.70;;;;;;;3.51;100.00;101453.84;5029997;28;20025;-62
2022/03/05 00:20:00;;;;;;;4.60;2.20;;;;;;;3.51;100.00;101461.72;5031019;28;20493;-59
2022/03/05 00:22:26;;;;;;;2.83;1.67;;;;;;;3.50;100.00;101458.25;5030081;28;20029;-57
2022/03/05 00:24:52;;;;;;;5.88;1.70;;;;;;;3.47;100.00;101455.88;5033586;28;20025;-60
2022/03/05 00:27:17;;;;;;;2.42;2.08;;;;;;;3.37;100.00;101460.19;5034052;28;20036;-59
2022/03/05 00:29:44;;;;;;;7.00;2.08;;;;;;;3.28;100.00;101458.31;5036901;28;20029;-56
2022/03/05 00:32:09;;;;;;;4.13;2.17;;;;;;;3.33;100.00;101465.78;5036499;28;20044;-62
2022/03/05 00:34:35;;;;;;;9.77;2.83;;;;;;;3.31;100.00;101462.47;5035203;28;20034;-56
2022/03/05 00:37:00;;;;;;;6.72;2.80;;;;;;;3.33;100.00;101461.41;5035369;28;20488;-59
2022/03/05 00:39:25;;;;;;;6.32;2.38;;;;;;;3.42;100.00;101468.53;5037785;28;20394;-57
2022/03/05 00:41:51;;;;;;;3.70;1.67;;;;;;;3.45;100.00;101460.41;5038031;28;20399;-60
2022/03/05 00:44:16;;;;;;;4.70;2.05;;;;;;;3.41;100.00;101455.56;5035938;28;20033;-59
2022/03/05 00:46:42;;;;;;;2.60;1.92;;;;;;;3.38;100.00;101463.63;5037338;28;20025;-57
2022/03/05 00:49:08;;;;;;;4.30;2.70;;;;;;;3.40;100.00;101461.72;5034500;28;20055;-61
2022/03/05 00:51:34;;;;;;;6.53;3.00;;;;;;;3.47;100.00;101463.75;5038549;28;20525;-59
2022/03/05 00:53:59;;;;;;;2.58;2.28;;;;;;;3.53;100.00;101466.84;5038491;28;20029;-57
2022/03/05 00:56:25;;;;;;;4.60;2.83;;;;;;;3.61;100.00;101469.69;5037929;28;20036;-58
2022/03/05 00:58:50;;;;;;;3.55;2.72;;;;;;;3.65;100.00;101468.50;5035606;28;20056;-60
2022/03/05 01:01:16;;;;;;;3.03;2.40;;;;;;;3.63;100.00;101468.63;5038219;28;20056;-58
2022/03/05 01:03:41;;;;;;;4.55;2.90;;;;;;;3.68;100.00;101471.72;5037887;28;20025;-58
2022/03/05 01:06:06;;;;;;;3.63;2.30;;;;;;;3.70;100.00;101468.97;5037683;28;20079;-61
2022/03/05 01:08:33;;;;;;;2.65;2.40;;;;;;;3.73;100.00;101473.97;5037346;28;20845;-58
2022/03/05 01:10:59;;;;;;;2.60;1.48;;;;;;;3.81;100.00;101476.81;5033408;28;20032;-58
2022/03/05 01:13:25;;;;;;;1.88;1.50;;;;;;;3.87;100.00;101478.09;5032676;28;20038;-58
2022/03/05 01:15:50;;;;;;;3.15;1.58;;;;;;;3.90;100.00;101473.47;5041223;28;20086;-60
2022/03/05 01:18:15;;;;;;;2.13;1.35;;;;;;;3.95;100.00;101470.47;5034747;28;20402;-59
2022/03/05 01:20:41;;;;;;;1.90;1.60;;;;;;;3.93;100.00;101475.00;5036424;28;20025;-58
2022/03/05 01:23:06;;;;;;;3.40;1.75;;;;;;;3.91;100.00;101482.16;5039403;28;20615;-58
2022/03/05 01:25:32;;;;;;;2.80;2.10;;;;;;;3.88;100.00;101471.91;5031261;28;20492;-59
2022/03/05 01:27:57;;;;;;;4.78;2.95;;;;;;;3.85;100.00;101474.78;5038149;28;20068;-58
2022/03/05 01:30:22;;;;;;;1.95;1.45;;;;;;;3.79;100.00;101467.41;5036402;28;20418;-57
2022/03/05 01:32:48;;;;;;;2.45;1.85;;;;;;;3.79;100.00;101483.13;5030991;28;20607;-59
2022/03/05 01:35:13;;;;;;;3.35;2.33;;;;;;;3.80;100.00;101479.56;5033167;28;20531;-57
2022/03/05 01:37:39;;;;;;;3.17;2.17;;;;;;;3.82;100.00;101468.00;5036020;28;20030;-57
2022/03/05 01:40:05;;;;;;;2.40;2.03;;;;;;;3.83;100.00;101476.69;5031918;28;20055;-57
2022/03/05 01:42:30;;;;;;;3.58;2.25;;;;;;;3.82;100.00;101477.63;5036536;28;20033;-58
2022/03/05 01:44:56;;;;;;;3.35;1.98;;;;;;;3.83;100.00;101476.69;5032493;28;20022;-60
2022/03/05 01:47:21;;;;;;;3.53;2.17;;;;;;;3.85;100.00;101478.25;5031118;28;20445;-60
2022/03/05 01:49:47;;;;;;;4.10;2.28;;;;;;;3.88;100.00;101472.75;5030811;28;20033;-61
2022/03/05 01:52:12;;;;;;;3.42;2.28;;;;;;;3.87;100.00;101476.34;5032335;28;20044;-56
2022/03/05 01:54:39;;;;;;;2.05;1.55;;;;;;;3.89;100.00;101473.56;5038125;28;20029;-59
2022/03/05 01:57:05;;;;;;;4.35;2.65;;;;;;;3.88;100.00;101478.00;5039922;28;20033;-59
2022/03/05 01:59:30;;;;;;;3.28;2.35;;;;;;;3.91;100.00;101483.00;5036348;28;20026;-58
2022/03/05 02:01:56;;;;;;;5.28;2.38;;;;;;;3.92;100.00;101476.81;5039627;28;20410;-55
2022/03/05 02:04:21;;;;;;;4.95;3.05;;;;;;;3.91;100.00;101476.91;5036354;28;20529;-60
2022/03/05 02:06:47;;;;;;;4.72;3.10;;;;;;;3.88;100.00;101477.16;5039914;28;20056;-60
2022/03/05 02:09:12;;;;;;;4.13;2.47;;;;;;;3.90;100.00;101488.38;5037803;28;20028;-61
2022/03/05 02:11:38;;;;;;;4.07;2.45;;;;;;;3.89;100.00;101482.28;5040060;28;20043;-57
2022/03/05 02:14:03;;;;;;;2.63;2.20;;;;;;;3.89;100.00;101484.06;5037584;28;20486;-58
2022/03/05 02:16:29;;;;;;;2.83;2.60;;;;;;;3.92;100.00;101476.81;5035549;28;20087;-57
2022/03/05 02:18:58;;;;;;;4.65;3.03;;;;;;;3.90;100.00;101475.25;5035105;28;20033;-58
2022/03/05 02:21:25;;;;;;;4.18;2.78;;;;;;;3.83;100.00;101481.94;5036583;28;20021;-55
2022/03/05 02:23:51;;;;;;;4.88;3.08;;;;;;;3.81;100.00;101489.09;5034063;28;20028;-59
2022/03/05 02:26:17;;;;;;;4.57;3.45;;;;;;;3.77;100.00;101487.66;5036777;28;20037;-59
2022/03/05 02:28:42;;;;;;;4.95;3.03;;;;;;;3.76;100.00;101486.00;5033472;28;20029;-56
2022/03/05 02:31:08;;;;;;;6.35;3.60;;;;;;;3.80;100.00;101495.31;5035412;28;20478;-61
2022/03/05 02:33:33;;;;;;;5.45;2.63;;;;;;;3.83;100.00;101492.44;5033158;28;20127;-58
2022/03/05 02:36:00;;;;;;;6.85;3.72;;;;;;;3.84;100.00;101497.56;5034042;28;20132;-56
2022/03/05 02:38:25;;;;;;;5.82;3.17;;;;;;;3.85;100.00;101496.63;5036384;28;20029;-58
2022/03/05 02:40:51;;;;;;;5.80;4.03;;;;;;;3.90;100.00;101486.59;5035041;28;20099;-59
2022/03/05 02:43:18;;;;;;;4.45;2.92;;;;;;;3.91;100.00;101484.78;5031329;28;20375;-59
2022/03/05 02:45:44;;;;;;;4.97;3.45;;;;;;;3.94;100.00;101490.63;5032824;28;20376;-60
2022/03/05 02:48:12;;;;;;;4.22;3.35;;;;;;;3.96;100.00;101493.13;5032683;28;20039;-57
2022/03/05 02:50:38;;;;;;;5.72;4.03;;;;;;;3.92;100.00;101489.94;5031826;28;20025;-59
2022/03/05 02:53:04;;;;;;;4.25;2.67;;;;;;;3.92;100.00;101489.06;5029965;28;20037;-58
2022/03/05 02:55:30;;;;;;;5.15;3.53;;;;;;;3.92;100.00;101491.69;5035204;28;21259;-57
2022/03/05 02:57:55;;;;;;;4.07;3.03;;;;;;;3.92;100.00;101489.06;5029407;28;20450;-57
2022/03/05 03:00:21;;;;;;;5.88;2.83;;;;;;;3.94;100.00;101492.41;5031246;28;20730;-56
2022/03/05 03:02:46;;;;;;;3.47;2.88;;;;;;;3.91;100.00;101493.50;5031186;28;20021;-61
2022/03/05 03:05:16;;;;;;;4.03;2.88;;;;;;;3.90;100.00;101497.09;5034816;28;20138;-60
2022/03/05 03:07:42;;;;;;;4.90;3.25;;;;;;;3.91;100.00;101488.25;5031288;28;20025;-59
2022/03/05 03:10:10;;;;;;;5.13;3.72;;;;;;;3.90;100.00;101496.25;5034904;28;20029;-58
2022/03/05 03:12:35;;;;;;;6.05;3.47;;;;;;;3.87;100.00;101488.59;5031002;28;20438;-61
2022/03/05 03:15:03;;;;;;;4.00;3.10;;;;;;;3.90;100.00;101491.00;5025157;28;20470;-59
2022/03/05 03:17:29;;;;;;;3.20;2.75;;;;;;;3.90;100.00;101486.59;5033532;28;20064;-58
2022/03/05 03:19:54;;;;;;;5.20;2.50;;;;;;;3.91;100.00;101488.25;5035349;28;20490;-59
2022/03/05 03:22:20;;;;;;;4.32;2.58;;;;;;;3.96;100.00;101493.13;5032338;28;20037;-58
2022/03/05 03:24:45;;;;;;;3.40;2.45;;;;;;;3.96;100.00;101489.66;5032826;28;20025;-60
2022/03/05 03:27:10;;;;;;;3.20;2.85;;;;;;;3.94;100.00;101495.03;5027705;28;20331;-59
2022/03/05 03:29:36;;;;;;;2.97;2.42;;;;;;;4.01;100.00;101488.34;5027102;28;20521;-58
2022/03/05 03:32:03;;;;;;;2.40;2.20;;;;;;;4.02;100.00;101492.63;5038892;28;20173;-58
2022/03/05 03:34:28;;;;;;;2.28;2.08;;;;;;;4.03;100.00;101485.59;5033189;28;20119;-58
2022/03/05 03:36:53;;;;;;;4.30;3.33;;;;;;;4.03;100.00;101489.06;5030151;28;20444;-57
2022/03/05 03:39:19;;;;;;;2.50;2.30;;;;;;;4.03;100.00;101494.31;5030126;28;20033;-59
2022/03/05 03:41:44;;;;;;;3.53;3.22;;;;;;;4.02;100.00;101483.91;5033330;28;20083;-57
2022/03/05 03:44:10;;;;;;;3.10;1.92;;;;;;;4.01;100.00;101493.59;5038713;28;20093;-57
2022/03/05 03:46:35;;;;;;;2.25;1.92;;;;;;;4.01;100.00;101488.34;5035396;28;20055;-55
2022/03/05 03:49:01;;;;;;;2.08;1.98;;;;;;;4.00;100.00;101486.69;5031699;28;20078;-54
2022/03/05 03:51:26;;;;;;;4.63;2.90;;;;;;;4.00;100.00;101491.06;5034114;28;20052;-59
2022/03/05 03:53:52;;;;;;;3.38;2.10;;;;;;;4.04;100.00;101482.84;5034194;28;20078;-61
2022/03/05 03:56:17;;;;;;;3.10;2.00;;;;;;;4.06;100.00;101478.31;5037774;28;20116;-58
2022/03/05 03:58:42;;;;;;;3.25;1.98;;;;;;;4.04;100.00;101476.75;5026645;28;20517;-57
2022/03/05 04:01:08;;;;;;;5.65;2.00;;;;;;;4.03;100.00;101483.81;5030804;28;20037;-58
2022/03/05 04:03:33;;;;;;;2.65;1.80;;;;;;;4.03;100.00;101480.34;5027716;28;20041;-55
2022/03/05 04:05:59;;;;;;;1.88;1.65;;;;;;;4.02;100.00;101490.00;5034501;28;20384;-56
2022/03/05 04:08:42;;;;;;;1.58;1.45;;;;;;;4.01;100.00;101484.88;5031297;28;20032;-59
2022/03/05 04:11:13;;;;;;;2.15;1.95;;;;;;;3.99;100.00;101485.00;5029324;28;20242;-57
2022/03/05 04:13:39;;;;;;;1.73;1.35;;;;;;;4.01;100.00;101477.84;5032700;28;20064;-54
2022/03/05 04:16:05;;;;;;;1.80;1.10;;;;;;;4.01;100.00;101477.03;5032075;28;20115;-58
2022/03/05 04:18:31;;;;;;;2.80;1.73;;;;;;;3.99;100.00;101479.75;5032244;28;20030;-61
2022/03/05 04:20:56;;;;;;;1.92;1.27;;;;;;;3.99;100.00;101479.75;5030452;28;20674;-57
2022/03/05 04:23:22;;;;;;;3.92;1.77;;;;;;;4.02;100.00;101478.66;5031841;28;20036;-53
2022/03/05 04:25:47;;;;;;;2.28;1.38;;;;;;;4.03;100.00;101481.19;5032753;28;20039;-56
2022/03/05 04:28:13;;;;;;;2.53;1.63;;;;;;;4.02;100.00;101479.50;5031842;28;20033;-56
2022/03/05 04:30:38;;;;;;;2.47;1.10;;;;;;;3.98;100.00;101483.34;5030377;28;20033;-57
2022/03/05 04:33:04;;;;;;;2.97;1.38;;;;;;;4.00;100.00;101486.69;5031940;28;20045;-54
2022/03/05 04:35:29;;;;;;;3.60;1.85;;;;;;;3.99;100.00;101490.25;5026522;28;20022;-58
2022/03/05 04:37:55;;;;;;;1.58;1.30;;;;;;;3.99;100.00;101490.25;5032433;28;20512;-52
2022/03/05 04:40:21;;;;;;;2.40;0.82;;;;;;;4.01;100.00;101498.00;5031312;28;20021;-59
2022/03/05 04:42:46;;;;;;;4.57;0.82;;;;;;;3.99;100.00;101498.13;5033318;28;20030;-56
2022/03/05 04:45:13;;;;;;;1.70;0.50;;;;;;;3.97;100.00;101505.28;5035804;28;20125;-54
2022/03/05 04:47:40;;;;;;;6.38;0.90;;;;;;;3.99;100.00;101500.75;5032663;28;20422;-55
2022/03/05 04:50:07;;;;;;;0.52;0.45;;;;;;;3.98;100.00;101499.09;5034962;28;20247;-60
2022/03/05 04:52:32;;;;;;;0.30;0.20;;;;;;;3.93;100.00;101504.69;5036060;28;20021;-58
2022/03/05 04:54:58;;;;;;;0.82;0.40;;;;;;;3.92;100.00;101499.56;5035511;28;20441;-55
2022/03/05 04:57:24;;;;;;;0.90;0.50;;;;;;;3.92;100.00;101504.81;5035574;28;20509;-57
2022/03/05 04:59:50;;;;;;;0.70;0.35;;;;;;;3.91;100.00;101497.91;5036836;28;20032;-56
2022/03/05 05:02:16;;;;;;;0.40;0.38;;;;;;;3.90;100.00;101501.50;5036417;28;20040;-60
2022/03/05 05:04:41;;;;;;;1.05;0.45;;;;;;;3.88;100.00;101499.00;5033276;28;20021;-59
2022/03/05 05:07:06;;;;;;;0.70;0.43;;;;;;;3.85;100.00;101504.47;5035405;28;20540;-58
2022/03/05 05:09:32;;;;;;;2.17;0.30;;;;;;;3.85;100.00;101511.53;5030894;28;20109;-59
2022/03/05 05:11:57;;;;;;;1.08;0.30;;;;;;;3.80;100.00;101506.63;5036521;28;20124;-58
2022/03/05 05:14:23;;;;;;;0.68;0.10;;;;;;;3.81;100.00;101502.22;5034693;28;20463;-60
2022/03/05 05:16:48;;;;;;;0.10;0.00;;;;;;;3.79;100.00;101517.25;5035880;28;20033;-55
2022/03/05 05:19:27;;;;;;;1.77;0.13;;;;;;;3.80;100.00;101506.63;5035605;28;20028;-61
2022/03/05 05:21:57;;;;;;;0.93;0.45;;;;;;;3.85;100.00;101511.53;5033889;28;20552;-60
2022/03/05 05:24:24;;;;;;;1.02;0.08;;;;;;;3.85;100.00;101507.09;5037442;28;20181;-56
2022/03/05 05:26:50;;;;;;;0.88;0.10;;;;;;;3.85;100.00;101519.41;5030698;28;20036;-59
2022/03/05 05:29:15;;;;;;;1.25;0.30;;;;;;;3.87;100.00;101517.47;5035516;28;20029;-57
2022/03/05 05:31:41;;;;;;;0.80;0.35;;;;;;;3.86;100.00;101527.13;5031394;28;20417;-56
2022/03/05 05:34:06;;;;;;;0.20;0.00;;;;;;;3.85;100.00;101524.66;5032268;28;20033;-57
2022/03/05 05:36:32;;;;;;;0.13;0.00;;;;;;;3.87;100.00;101523.56;5033260;28;20420;-53
2022/03/05 05:38:57;;;;;;;1.75;0.30;;;;;;;3.87;100.00;101533.22;5034756;28;20159;-58
2022/03/05 05:41:22;;;;;;;1.77;0.65;;;;;;;3.87;100.00;101536.69;5033764;28;20391;-59
2022/03/05 05:43:48;;;;;;;1.45;0.20;;;;;;;3.87;100.00;101541.06;5032288;28;20056;-60
2022/03/05 05:46:13;;;;;;;1.20;0.75;;;;;;;3.84;100.00;101544.78;5038897;28;20032;-60
2022/03/05 05:48:38;;;;;;;0.75;0.05;;;;;;;3.83;100.00;101544.91;5031520;28;20032;-58
2022/03/05 05:51:05;;;;;;;0.85;0.20;;;;;;;3.82;100.00;101540.59;5029706;28;20368;-57
2022/03/05 05:53:30;;;;;;;3.60;0.10;;;;;;;3.85;100.00;101551.72;5035805;28;20727;-61
2022/03/05 05:55:55;;;;;;;3.72;0.20;;;;;;;3.84;100.00;101544.78;5036099;28;20446;-56
2022/03/05 05:58:22;;;;;;;2.33;0.45;;;;;;;3.86;100.00;101555.16;5032825;28;20029;-55
2022/03/05 06:00:48;;;;;;;4.25;0.15;;;;;;;3.87;100.00;101543.69;5032666;28;20040;-59
2022/03/05 06:03:14;;;;;;;1.40;0.20;;;;;;;3.83;100.00;101540.50;5032508;28;20033;-56
2022/03/05 06:05:39;;;;;;;2.72;0.52;;;;;;;3.81;100.00;101544.19;5037698;28;20429;-56
2022/03/05 06:08:05;;;;;;;0.85;0.43;;;;;;;3.82;100.00;101554.59;5032701;28;20044;-59
2022/03/05 06:10:30;;;;;;;5.35;0.55;;;;;;;3.84;100.00;101554.44;5034209;28;20079;-56
2022/03/05 06:12:56;;;;;;;1.50;0.75;;;;;;;3.86;100.00;101563.03;5037701;28;20087;-58
2022/03/05 06:15:22;;;;;;;2.95;0.47;;;;;;;3.89;100.00;101554.91;5036255;28;20039;-56
2022/03/05 06:17:47;;;;;;;0.30;0.30;;;;;;;3.87;100.00;101556.81;5031905;28;20428;-57
2022/03/05 06:20:12;;;;;;;4.80;0.17;;;;;;;3.83;100.00;101542.28;5032053;28;20434;-61
2022/03/05 06:22:38;;;;;;;2.78;0.28;;;;;;;3.87;100.00;101554.19;5030437;28;20052;-58
2022/03/05 06:25:05;;;;;;;1.80;0.30;;;;;;;3.89;100.00;101561.00;5035560;28;20373;-57
2022/03/05 06:27:30;;;;;;;0.85;0.10;;;;;;;3.89;100.00;101561.00;5033103;28;20120;-59
2022/03/05 06:29:55;;;;;;;0.45;0.17;;;;;;;3.91;100.00;101547.75;5034975;28;20024;-58
2022/03/05 06:32:21;;;;;;;0.40;0.20;;;;;;;3.92;100.00;101550.28;5034595;28;20036;-56
2022/03/05 06:34:46;;;;;;;0.73;0.10;;;;;;;3.93;100.00;101558.97;5034421;28;20375;-59
2022/03/05 06:37:11;;;;;;;1.73;0.00;;;;;;;3.93;100.00;101558.97;5037661;28;20388;-55
2022/03/05 06:39:37;;;;;;;1.45;0.20;;;;;;;3.96;100.00;101561.34;5034519;28;20032;-59
2022/03/05 06:42:03;;;;;;;2.50;0.20;;;;;;;3.96;100.00;101566.59;5041833;28;20468;-57
2022/03/05 06:44:28;;;;;;;2.20;0.05;;;;;;;3.94;100.00;101566.72;5038838;28;20116;-53
2022/03/05 06:46:53;;;;;;;0.60;0.32;;;;;;;3.94;100.00;101573.75;5038476;28;20036;-55
2022/03/05 06:49:19;;;;;;;0.10;0.03;;;;;;;3.94;100.00;101577.22;5029430;28;20084;-59
2022/03/05 06:51:44;;;;;;;3.15;0.30;;;;;;;3.93;100.00;101578.19;5037739;28;20029;-55
2022/03/05 06:54:09;;;;;;;0.57;0.10;;;;;;;3.95;100.00;101588.56;5033386;28;20033;-52
2022/03/05 06:56:35;;;;;;;8.77;1.25;;;;;;;3.94;100.00;101581.63;5029307;28;20131;-57
2022/03/05 06:59:00;;;;;;;0.80;0.20;;;;;;;3.93;100.00;101580.81;5033217;28;20017;-59
2022/03/05 07:01:25;;;;;;;2.28;0.10;;;;;;;3.92;100.00;101583.53;5030269;28;20033;-59
2022/03/05 07:03:51;;;;;;;5.93;0.80;;;;;;;3.92;100.00;101580.91;5029800;28;20174;-57
2022/03/05 07:06:16;;;;;;;1.77;0.20;;;;;;;3.91;100.00;101582.69;5037110;28;20029;-60
2022/03/05 07:08:42;;;;;;;0.90;0.10;;;;;;;3.95;100.00;101588.56;5035479;28;20078;-60
2022/03/05 07:11:07;;;;;;;2.88;0.10;;;;;;;3.98;100.00;101588.31;5032563;28;20029;-58
2022/03/05 07:13:34;;;;;;;0.50;0.20;;;;;;;4.00;100.00;101590.81;5031895;28;20037;-58
2022/03/05 07:16:00;;;;;;;0.10;0.10;;;;;;;4.00;100.00;101591.66;5033486;28;20048;-59
2022/03/05 07:18:25;;;;;;;2.30;0.68;;;;;;;4.00;100.00;101590.81;5035218;28;20038;-57
2022/03/05 07:20:50;;;;;;;2.20;1.25;;;;;;;3.99;100.00;101597.84;5035211;28;20033;-59
2022/03/05 07:23:16;;;;;;;2.80;0.13;;;;;;;4.02;100.00;101592.34;5034520;28;20025;-59
2022/03/05 07:25:41;;;;;;;0.20;0.10;;;;;;;4.04;100.00;101594.88;5035927;28;20076;-55
2022/03/05 07:28:09;;;;;;;2.83;0.10;;;;;;;4.02;100.00;101600.22;5026400;28;20360;-53
2022/03/05 07:30:35;;;;;;;1.70;0.95;;;;;;;4.01;100.00;101593.31;5031288;28;20033;-56
2022/03/05 07:33:00;;;;;;;4.28;0.70;;;;;;;4.02;100.00;101605.47;5028492;28;20116;-51
2022/03/05 07:35:25;;;;;;;0.25;0.20;;;;;;;4.03;100.00;101606.34;5030941;28;20031;-58
2022/03/05 07:37:51;;;;;;;0.35;0.10;;;;;;;4.03;100.00;101611.59;5036033;28;20115;-60
2022/03/05 07:40:17;;;;;;;0.55;0.10;;;;;;;4.03;100.00;101617.66;5034559;28;20063;-57
2022/03/05 07:42:42;;;;;;;1.08;0.03;;;;;;;4.06;100.00;101616.59;5030758;28;20051;-58
2022/03/05 07:45:08;;;;;;;0.38;0.38;;;;;;;4.08;100.00;101615.50;5030265;28;20037;-57
2022/03/05 07:47:33;;;;;;;2.63;0.03;;;;;;;4.09;100.00;101625.03;5030505;28;20553;-58
2022/03/05 07:50:00;;;;;;;1.83;0.20;;;;;;;4.11;100.00;101609.19;5029927;28;20574;-55
2022/03/05 07:52:25;;;;;;;3.40;0.08;;;;;;;4.12;100.00;101622.16;5031065;28;20037;-58
2022/03/05 07:54:51;;;;;;;1.08;0.05;;;;;;;4.13;100.00;101612.50;5030606;28;20032;-56
2022/03/05 07:57:16;;;;;;;0.15;0.15;;;;;;;4.13;100.00;101623.84;5030119;28;20120;-56
2022/03/05 07:59:41;;;;;;;10.88;0.20;;;;;;;4.09;100.00;101626.84;5030947;28;20502;-54
2022/03/05 08:02:07;;;;;;;1.83;0.10;;;;;;;4.07;100.00;101629.56;5033459;28;20053;-58
2022/03/05 08:04:32;;;;;;;3.60;0.17;;;;;;;4.06;100.00;101637.59;5034414;28;20486;-61
2022/03/05 08:06:58;;;;;;;1.55;0.00;;;;;;;4.02;100.00;101634.34;5035470;28;20025;-60
2022/03/05 08:09:23;;;;;;;1.70;0.30;;;;;;;4.00;100.00;101651.16;5030478;28;20523;-60
2022/03/05 08:11:48;;;;;;;1.88;0.20;;;;;;;3.94;100.00;101655.09;5036638;28;20067;-57
2022/03/05 08:14:14;;;;;;;2.95;0.85;;;;;;;3.89;100.00;101652.81;5034293;28;20077;-57
2022/03/05 08:16:39;;;;;;;1.38;0.05;;;;;;;3.87;100.00;101659.16;5032348;28;20037;-59
2022/03/05 08:19:04;;;;;;;0.00;0.00;;;;;;;3.88;100.00;101655.59;5035875;28;20025;-58
2022/03/05 08:21:30;;;;;;;1.25;0.20;;;;;;;3.90;100.00;101657.13;5036636;28;20402;-59
2022/03/05 08:23:56;;;;;;;1.55;0.17;;;;;;;3.93;100.00;101658.69;5051529;28;20449;-58
2022/03/05 08:26:21;;;;;;;3.20;0.40;;;;;;;3.94;100.00;101660.34;5043800;28;20036;-59
2022/03/05 08:28:47;;;;;;;0.00;0.00;;;;;;;3.98;100.00;101658.34;5033857;28;20021;-58
2022/03/05 08:31:12;;;;;;;0.10;0.10;;;;;;;4.02;100.00;101659.75;5035791;28;20025;-61
2022/03/05 08:33:41;;;;;;;1.48;0.70;;;;;;;4.06;100.00;101653.31;5035435;28;20052;-53
2022/03/05 08:36:07;;;;;;;0.17;0.17;;;;;;;4.05;100.00;101657.75;5031913;28;20550;-55
2022/03/05 08:38:34;;;;;;;2.83;0.10;;;;;;;4.08;100.00;101662.75;5027954;28;20436;-48
2022/03/05 08:41:01;;;;;;;2.40;1.45;;;;;;;4.18;100.00;101638.38;5029271;28;20059;-55
2022/03/05 08:43:26;;;;;;;0.55;0.17;;;;;;;4.29;100.00;101648.91;5027444;28;20079;-55
2022/03/05 08:45:52;;;;;;;2.28;0.57;;;;;;;4.39;100.00;101639.34;5029092;28;20527;-59
2022/03/05 08:48:18;;;;;;;2.05;0.22;;;;;;;4.47;100.00;101636.09;5031607;28;20543;-55
2022/03/05 08:50:44;;;;;;;0.93;0.32;;;;;;;4.52;100.00;101641.81;5028331;28;20031;-58
2022/03/05 08:53:09;;;;;;;0.10;0.10;;;;;;;4.58;100.00;101639.50;5027565;28;20028;-52
2022/03/05 08:55:35;;;;;;;0.77;0.00;;;;;;;4.63;100.00;101647.03;5028017;28;20025;-58
2022/03/05 08:58:00;;;;;;;0.10;0.10;;;;;;;4.66;100.00;101638.88;5034761;28;20040;-57
2022/03/05 09:00:26;;;;;;;0.13;0.10;;;;;;;4.72;100.00;101642.81;5033589;28;20390;-49
2022/03/05 09:02:51;;;;;;;0.00;0.00;;;;;;;4.75;100.00;101635.53;5036519;28;20104;-57
2022/03/05 09:05:17;;;;;;;0.35;0.10;;;;;;;4.82;100.00;101641.09;5038506;28;20033;-58
2022/03/05 09:07:43;;;;;;;3.03;0.25;;;;;;;4.90;100.00;101635.22;5036016;28;20170;-55
2022/03/05 09:10:09;;;;;;;0.00;0.00;;;;;;;4.97;100.00;101634.59;5040442;28;20507;-59
2022/03/05 09:12:34;;;;;;;0.30;0.20;;;;;;;5.01;100.00;101636.03;5036905;28;20126;-55
2022/03/05 09:15:00;;;;;;;0.10;0.05;;;;;;;5.04;100.00;101642.81;5034399;28;20652;-57
2022/03/05 09:17:25;;;;;;;9.63;1.15;;;;;;;5.02;100.00;101653.44;5039035;28;20060;-57
2022/03/05 09:19:51;;;;;;;2.40;0.10;;;;;;;4.97;100.00;101654.78;5034733;28;20033;-54
2022/03/05 09:22:17;;;;;;;0.15;0.00;;;;;;;4.98;100.00;101652.06;5037625;28;20085;-57
2022/03/05 09:24:42;;;;;;;0.35;0.15;;;;;;;5.00;100.00;101639.59;5032964;28;20041;-52
2022/03/05 09:27:09;;;;;;;1.55;0.05;;;;;;;4.98;100.00;101648.56;5038474;28;20433;-53
2022/03/05 09:29:34;;;;;;;1.55;0.22;;;;;;;4.97;100.00;101649.53;5029564;28;20240;-55
2022/03/05 09:32:00;;;;;;;1.38;0.13;;;;;;;4.98;100.00;101656.44;5038856;28;20558;-58
2022/03/05 09:34:26;;;;;;;4.68;1.88;;;;;;;4.96;100.00;101643.47;5031492;28;20172;-58
2022/03/05 09:36:52;;;;;;;2.75;0.28;;;;;;;4.95;100.00;101662.78;5035982;28;20041;-52
2022/03/05 09:39:18;;;;;;;1.05;0.95;;;;;;;5.04;100.00;101661.22;5034714;28;20474;-56
2022/03/05 09:41:43;;;;;;;1.20;0.30;;;;;;;5.03;100.00;101660.41;5029858;28;20508;-53
2022/03/05 09:44:09;;;;;;;0.47;0.00;;;;;;;5.07;100.00;101650.44;5033229;28;20377;-56
2022/03/05 09:46:35;;;;;;;3.30;0.30;;;;;;;5.14;100.00;101653.41;5034945;28;20037;-55
2022/03/05 09:49:02;;;;;;;0.40;0.05;;;;;;;5.17;100.00;101650.53;5036151;28;20033;-52
2022/03/05 09:51:28;;;;;;;0.75;0.00;;;;;;;5.19;100.00;101651.25;5034665;28;20446;-58
2022/03/05 09:53:54;;;;;;;3.42;0.08;;;;;;;5.22;100.00;101653.63;5035296;28;20503;-58
2022/03/05 09:56:20;;;;;;;0.90;0.30;;;;;;;5.24;100.00;101654.31;5032813;28;20489;-54
2022/03/05 09:58:50;;;;;;;1.02;0.13;;;;;;;5.35;100.00;101649.00;5036126;28;20041;-58
2022/03/05 10:01:17;;;;;;;0.35;0.05;;;;;;;5.37;100.00;101652.34;5040195;28;20159;-50
2022/03/05 10:03:53;;;;;;;2.58;0.10;;;;;;;5.35;100.00;101659.50;5045051;28;20025;-58
2022/03/05 10:06:28;;;;;;;0.35;0.00;;;;;;;5.32;100.00;101661.56;5035833;28;20025;-57
2022/03/05 10:08:57;;;;;;;2.05;0.10;;;;;;;5.33;100.00;101656.19;5035115;28;20121;-58
2022/03/05 10:11:38;;;;;;;0.95;0.20;;;;;;;5.37;100.00;101654.09;5034280;28;20687;-51
2022/03/05 10:14:17;;;;;;;0.20;0.20;;;;;;;5.41;100.00;101659.00;5044254;28;20488;-54
2022/03/05 10:16:43;;;;;;;0.50;0.00;;;;;;;5.40;100.00;101662.59;5035243;28;20147;-57
2022/03/05 10:19:22;;;;;;;3.30;0.00;;;;;;;5.42;100.00;101662.44;5045999;28;20080;-58
2022/03/05 10:21:55;;;;;;;5.78;0.20;;;;;;;5.36;100.00;101671.69;5031709;28;20079;-58
2022/03/05 10:24:30;;;;;;;2.45;0.60;;;;;;;5.31;100.00;101673.88;5025349;28;20033;-55
2022/03/05 10:26:56;;;;;;;0.10;0.00;;;;;;;5.29;100.00;101686.31;5034112;28;20033;-51
2022/03/05 10:29:25;;;;;;;2.10;0.00;;;;;;;5.26;100.00;101670.78;5039725;28;20029;-56
2022/03/05 10:32:01;;;;;;;0.93;0.22;;;;;;;5.27;100.00;101672.47;5038531;28;20461;-58
2022/03/05 10:34:52;;;;;;;2.55;0.00;;;;;;;5.26;100.00;101681.31;5036461;28;20026;-54
2022/03/05 10:37:19;;;;;;;2.17;0.10;;;;;;;5.33;100.00;101669.31;5042183;28;20021;-49
2022/03/05 10:39:46;;;;;;;2.97;0.20;;;;;;;5.31;100.00;101667.78;5044848;28;20032;-59
2022/03/05 10:42:26;;;;;;;2.63;0.08;;;;;;;5.35;100.00;101675.31;5030518;28;20187;-55
2022/03/05 10:45:06;;;;;;;1.50;0.47;;;;;;;5.31;100.00;101668.63;5033129;28;20131;-60
2022/03/05 10:47:43;;;;;;;0.90;0.25;;;;;;;5.35;100.00;101675.31;5026474;28;20064;-55
2022/03/05 10:50:14;;;;;;;7.18;0.13;;;;;;;5.46;100.00;101671.78;5030106;28;20031;-60
2022/03/05 10:52:43;;;;;;;;;;;;;;;5.52;100.00;101675.69;5032083;28;20122;-53
2022/03/05 10:55:20;;;;;;;2.22;0.10;;;;;;;5.62;100.00;101672.13;5034073;28;20015;-57
2022/03/05 10:58:13;;;;;;;1.85;0.00;;;;;;;5.67;100.00;101667.31;5030453;28;20635;-57
2022/03/05 11:00:40;;;;;;;1.27;0.47;;;;;;;5.70;100.00;101666.22;5033352;28;20048;-51
2022/03/05 11:03:06;;;;;;;2.55;0.32;;;;;;;5.72;100.00;101658.22;5030012;28;20037;-53
2022/03/05 11:05:32;;;;;;;0.00;0.00;;;;;;;5.80;100.00;101664.47;5026321;28;20022;-60
2022/03/05 11:07:59;;;;;;;0.30;0.20;;;;;;;5.84;100.00;101673.78;5034433;28;20041;-60
2022/03/05 11:10:29;;;;;;;0.82;0.57;;;;;;;6.00;100.00;101681.25;5027670;28;20035;-52
2022/03/05 11:12:56;;;;;;;0.17;0.08;;;;;;;5.93;100.00;101666.91;5033414;28;20111;-56
2022/03/05 11:15:24;;;;;;;2.28;0.20;;;;;;;5.83;100.00;101672.09;5035804;28;20018;-56
2022/03/05 11:17:50;;;;;;;1.45;0.10;;;;;;;5.82;100.00;101659.94;5031462;28;20139;-62
2022/03/05 11:20:16;;;;;;;6.03;0.63;;;;;;;5.83;100.00;101673.91;5040227;28;20035;-60